createdAt,value
2018-01-13T00:01:44.701Z,92.10
2018-01-13T00:04:12.868Z,92.00
2018-01-13T00:06:41.043Z,91.60
2018-01-13T00:09:09.227Z,91.50
2018-01-13T00:11:37.403Z,91.70
2018-01-13T00:14:05.658Z,91.80
2018-01-13T00:16:33.821Z,91.70
2018-01-13T00:19:01.992Z,91.70
2018-01-13T00:21:30.194Z,91.80
2018-01-13T00:23:58.363Z,91.70
2018-01-13T00:26:26.522Z,91.70
2018-01-13T00:28:54.689Z,91.70
2018-01-13T00:31:23.620Z,92.00
2018-01-13T00:33:51.785Z,92.00
2018-01-13T00:36:19.948Z,92.10
2018-01-13T00:38:48.148Z,92.10
2018-01-13T00:41:17.095Z,92.10
2018-01-13T00:43:46.053Z,92.00
2018-01-13T00:46:14.230Z,92.00
2018-01-13T00:48:42.394Z,92.30
2018-01-13T00:51:10.562Z,91.90
2018-01-13T00:53:38.731Z,92.00
2018-01-13T00:56:06.911Z,92.00
2018-01-13T00:58:35.095Z,91.80
2018-01-13T01:01:03.302Z,91.70
2018-01-13T01:03:32.242Z,91.90
2018-01-13T01:06:00.408Z,91.80
2018-01-13T01:08:28.575Z,91.90
2018-01-13T01:10:56.788Z,92.00
2018-01-13T01:13:24.954Z,92.00
2018-01-13T01:15:53.119Z,91.80
2018-01-13T01:18:21.328Z,91.80
2018-01-13T01:20:49.497Z,91.80
2018-01-13T01:23:17.662Z,91.80
2018-01-13T01:25:45.856Z,91.70
2018-01-13T01:28:14.028Z,91.80
2018-01-13T01:30:42.188Z,91.80
2018-01-13T01:33:10.359Z,91.90
2018-01-13T01:35:38.562Z,92.10
2018-01-13T01:38:07.501Z,92.10
2018-01-13T01:40:35.714Z,92.10
2018-01-13T01:43:03.889Z,92.10
2018-01-13T01:45:32.090Z,92.10
2018-01-13T01:48:01.024Z,92.20
2018-01-13T01:50:29.186Z,92.20
2018-01-13T01:52:57.354Z,92.20
2018-01-13T01:55:25.514Z,92.10
2018-01-13T01:57:53.679Z,92.20
2018-01-13T02:00:22.645Z,91.90
2018-01-13T02:02:50.809Z,91.80
2018-01-13T02:05:19.765Z,91.90
2018-01-13T02:07:47.942Z,91.80
2018-01-13T02:10:16.101Z,91.80
2018-01-13T02:12:44.264Z,91.60
2018-01-13T02:15:13.197Z,91.60
2018-01-13T02:17:41.358Z,91.60
2018-01-13T02:20:09.617Z,91.60
2018-01-13T02:22:37.788Z,91.60
2018-01-13T02:25:05.960Z,91.70
2018-01-13T02:27:34.165Z,91.80
2018-01-13T02:30:02.349Z,91.70
2018-01-13T02:32:30.532Z,91.80
2018-01-13T02:34:58.694Z,91.80
2018-01-13T02:37:26.854Z,91.80
2018-01-13T02:39:55.078Z,91.50
2018-01-13T02:42:23.255Z,91.50
2018-01-13T02:44:51.414Z,91.60
2018-01-13T02:47:19.592Z,91.50
2018-01-13T02:49:47.778Z,91.30
2018-01-13T02:52:15.945Z,91.40
2018-01-13T02:54:44.122Z,91.30
2018-01-13T02:57:12.321Z,91.20
2018-01-13T02:59:41.245Z,91.40
2018-01-13T03:02:09.397Z,91.40
2018-01-13T03:04:37.592Z,91.40
2018-01-13T03:07:05.757Z,91.40
2018-01-13T03:09:33.914Z,91.20
2018-01-13T03:12:02.077Z,91.20
2018-01-13T03:14:31.011Z,90.90
2018-01-13T03:16:59.169Z,90.90
2018-01-13T03:19:27.329Z,91.00
2018-01-13T03:21:55.503Z,91.00
2018-01-13T03:24:23.692Z,91.10
2018-01-13T03:26:51.854Z,90.80
2018-01-13T03:29:20.793Z,90.90
2018-01-13T03:31:48.986Z,90.90
2018-01-13T03:34:17.156Z,90.80
2018-01-13T03:36:45.313Z,91.00
2018-01-13T03:39:13.514Z,90.90
2018-01-13T03:41:41.709Z,90.90
2018-01-13T03:44:10.639Z,90.90
2018-01-13T03:46:38.825Z,90.90
2018-01-13T03:49:07.028Z,90.80
2018-01-13T03:51:35.201Z,90.70
2018-01-13T03:54:03.362Z,91.00
2018-01-13T03:56:31.531Z,90.90
2018-01-13T03:58:59.699Z,91.00
2018-01-13T04:01:27.858Z,91.00
2018-01-13T04:03:56.040Z,90.90
2018-01-13T04:06:24.234Z,91.00
2018-01-13T04:08:52.437Z,91.10
2018-01-13T04:11:20.617Z,90.90
2018-01-13T04:13:49.561Z,91.00
2018-01-13T04:16:17.733Z,90.90
2018-01-13T04:18:45.899Z,91.20
2018-01-13T04:21:14.075Z,91.30
2018-01-13T04:23:42.250Z,91.00
2018-01-13T04:26:10.429Z,90.90
2018-01-13T04:28:38.588Z,91.00
2018-01-13T04:31:06.778Z,91.10
2018-01-13T04:33:34.955Z,91.60
2018-01-13T04:36:03.143Z,91.20
2018-01-13T04:38:31.306Z,91.30
2018-01-13T04:40:59.473Z,91.50
2018-01-13T04:43:27.630Z,91.50
2018-01-13T04:45:55.797Z,91.70
2018-01-13T04:48:23.955Z,91.70
2018-01-13T04:50:52.888Z,91.60
2018-01-13T04:53:21.055Z,91.60
2018-01-13T04:55:49.233Z,91.60
2018-01-13T04:58:17.384Z,91.20
2018-01-13T05:00:45.546Z,91.10
2018-01-13T05:03:14.481Z,91.40
2018-01-13T05:05:42.637Z,91.40
2018-01-13T05:08:10.799Z,91.40
2018-01-13T05:10:38.971Z,91.40
2018-01-13T05:13:07.897Z,91.60
2018-01-13T05:15:36.090Z,91.50
2018-01-13T05:18:04.262Z,91.50
2018-01-13T05:20:32.422Z,91.40
2018-01-13T05:23:00.594Z,91.30
2018-01-13T05:25:28.797Z,91.40
2018-01-13T05:27:56.961Z,91.50
2018-01-13T05:30:25.145Z,91.40
2018-01-13T05:32:53.334Z,91.50
2018-01-13T05:35:21.498Z,91.60
2018-01-13T05:37:49.658Z,91.80
2018-01-13T05:40:17.823Z,91.60
2018-01-13T05:42:45.985Z,91.60
2018-01-13T05:45:14.151Z,91.50
2018-01-13T05:47:42.346Z,91.60
2018-01-13T05:50:10.518Z,91.40
2018-01-13T05:52:38.688Z,91.40
2018-01-13T05:55:06.854Z,91.60
2018-01-13T05:57:35.017Z,91.50
2018-01-13T06:00:03.206Z,91.30
2018-01-13T06:02:31.362Z,91.30
2018-01-13T06:04:59.553Z,91.20
2018-01-13T06:07:27.737Z,91.10
2018-01-13T06:09:55.943Z,91.00
2018-01-13T06:12:24.111Z,90.90
2018-01-13T06:14:52.269Z,90.80
2018-01-13T06:17:20.433Z,90.80
2018-01-13T06:19:48.605Z,91.00
2018-01-13T06:22:16.776Z,91.10
2018-01-13T06:24:44.934Z,91.10
2018-01-13T06:27:13.095Z,91.10
2018-01-13T06:29:42.050Z,91.20
2018-01-13T06:32:10.207Z,91.20
2018-01-13T06:34:38.373Z,91.20
2018-01-13T06:37:06.550Z,91.20
2018-01-13T06:39:34.714Z,91.20
2018-01-13T06:42:02.880Z,91.20
2018-01-13T06:44:31.117Z,91.20
2018-01-13T06:46:59.270Z,91.30
2018-01-13T06:49:27.425Z,91.20
2018-01-13T06:51:55.601Z,91.30
2018-01-13T06:54:23.788Z,91.20
2018-01-13T06:56:51.958Z,91.20
2018-01-13T06:59:20.129Z,91.20
2018-01-13T07:01:48.301Z,91.40
2018-01-13T07:04:16.466Z,91.50
2018-01-13T07:06:44.665Z,91.50
2018-01-13T07:09:12.825Z,91.50
2018-01-13T07:11:41.005Z,91.60
2018-01-13T07:14:09.171Z,91.70
2018-01-13T07:16:37.366Z,91.90
2018-01-13T07:19:05.531Z,92.00
2018-01-13T07:21:33.701Z,91.80
2018-01-13T07:24:01.884Z,91.90
2018-01-13T07:26:30.061Z,91.50
2018-01-13T07:28:58.233Z,91.40
2018-01-13T07:31:26.395Z,91.30
2018-01-13T07:33:54.590Z,91.30
2018-01-13T07:36:22.774Z,91.20
2018-01-13T07:38:50.941Z,91.10
2018-01-13T07:41:19.103Z,90.70
2018-01-13T07:43:47.265Z,91.20
2018-01-13T07:46:15.436Z,91.00
2018-01-13T07:48:43.597Z,91.00
2018-01-13T07:51:11.758Z,91.00
2018-01-13T07:53:39.921Z,91.00
2018-01-13T07:56:08.082Z,90.80
2018-01-13T07:58:37.021Z,90.80
2018-01-13T08:01:05.176Z,90.70
2018-01-13T08:03:33.349Z,90.90
2018-01-13T08:06:01.535Z,91.00
2018-01-13T08:08:29.755Z,91.10
2018-01-13T08:10:57.927Z,91.00
2018-01-13T08:13:26.086Z,91.00
2018-01-13T08:15:54.254Z,91.00
2018-01-13T08:18:22.427Z,90.80
2018-01-13T08:20:50.623Z,90.80
2018-01-13T08:23:18.793Z,90.90
2018-01-13T08:25:46.960Z,91.00
2018-01-13T08:28:15.153Z,90.90
2018-01-13T08:30:43.329Z,90.90
2018-01-13T08:33:11.506Z,90.80
2018-01-13T08:35:39.676Z,90.60
2018-01-13T08:38:07.870Z,90.80
2018-01-13T08:40:36.810Z,90.90
2018-01-13T08:43:04.975Z,90.90
2018-01-13T08:45:33.145Z,90.90
2018-01-13T08:48:01.319Z,90.90
2018-01-13T08:50:29.479Z,91.00
2018-01-13T08:52:57.637Z,91.20
2018-01-13T08:55:26.572Z,91.40
2018-01-13T08:57:54.781Z,91.40
2018-01-13T09:00:22.962Z,91.50
2018-01-13T09:02:51.170Z,91.50
2018-01-13T09:05:19.333Z,91.60
2018-01-13T09:07:48.262Z,91.60
2018-01-13T09:10:17.319Z,91.60
2018-01-13T09:12:46.255Z,91.50
2018-01-13T09:15:14.418Z,91.50
2018-01-13T09:17:42.577Z,91.20
2018-01-13T09:20:10.748Z,91.20
2018-01-13T09:22:38.917Z,91.00
2018-01-13T09:25:07.074Z,91.10
2018-01-13T09:27:36.034Z,90.70
2018-01-13T09:30:04.214Z,90.70
2018-01-13T09:32:32.507Z,90.40
2018-01-13T09:35:00.800Z,90.30
2018-01-13T09:37:29.735Z,91.00
2018-01-13T09:39:57.911Z,91.00
2018-01-13T09:42:26.876Z,89.90
2018-01-13T09:44:55.056Z,89.90
2018-01-13T09:47:23.242Z,89.90
2018-01-13T09:49:51.414Z,90.40
2018-01-13T09:52:19.622Z,89.90
2018-01-13T09:54:47.792Z,90.30
2018-01-13T09:57:15.987Z,89.10
2018-01-13T09:59:44.190Z,88.50
2018-01-13T10:02:13.149Z,89.30
2018-01-13T10:04:41.329Z,89.20
2018-01-13T10:07:09.522Z,89.00
2018-01-13T10:09:38.489Z,89.80
2018-01-13T10:12:06.692Z,89.70
2018-01-13T10:14:35.657Z,89.70
2018-01-13T10:17:03.847Z,89.60
2018-01-13T10:19:32.071Z,89.80
2018-01-13T10:22:00.333Z,89.70
2018-01-13T10:24:28.645Z,89.10
2018-01-13T10:26:56.862Z,89.90
2018-01-13T10:29:25.849Z,89.50
2018-01-13T10:31:54.835Z,89.10
2018-01-13T10:34:23.055Z,88.90
2018-01-13T10:36:51.243Z,88.60
2018-01-13T10:39:19.443Z,88.90
2018-01-13T10:41:47.623Z,88.50
2018-01-13T10:44:15.806Z,88.80
2018-01-13T10:46:44.066Z,88.70
2018-01-13T10:49:12.221Z,89.10
2018-01-13T10:51:40.529Z,89.30
2018-01-13T10:54:09.587Z,89.30
2018-01-13T10:56:37.789Z,89.30
2018-01-13T10:59:05.963Z,88.30
2018-01-13T11:01:34.171Z,88.20
2018-01-13T11:04:03.114Z,88.40
2018-01-13T11:06:31.316Z,88.40
2018-01-13T11:08:59.517Z,87.80
2018-01-13T11:11:28.503Z,88.40
2018-01-13T11:13:57.466Z,88.20
2018-01-13T11:16:25.639Z,88.10
2018-01-13T11:18:53.835Z,88.00
2018-01-13T11:21:22.064Z,88.00
2018-01-13T11:23:50.234Z,88.70
2018-01-13T11:26:18.403Z,88.30
2018-01-13T11:28:46.571Z,88.40
2018-01-13T11:31:14.747Z,88.10
2018-01-13T11:33:42.911Z,88.10
2018-01-13T11:36:11.905Z,90.00
2018-01-13T11:38:40.862Z,89.20
2018-01-13T11:41:09.082Z,89.20
2018-01-13T11:43:37.282Z,89.10
2018-01-13T11:46:05.527Z,88.50
2018-01-13T11:48:33.737Z,88.50
2018-01-13T11:51:01.943Z,88.10
2018-01-13T11:53:30.127Z,88.50
2018-01-13T11:55:58.333Z,88.40
2018-01-13T11:58:26.502Z,88.50
2018-01-13T12:00:54.736Z,89.00
2018-01-13T12:03:22.922Z,89.30
2018-01-13T12:05:51.104Z,89.50
2018-01-13T12:08:19.306Z,89.10
2018-01-13T12:10:47.523Z,89.70
2018-01-13T12:13:16.080Z,88.30
2018-01-13T12:15:44.305Z,88.50
2018-01-13T12:18:12.560Z,88.80
2018-01-13T12:20:40.739Z,88.10
2018-01-13T12:23:08.922Z,88.30
2018-01-13T12:25:37.115Z,88.50
2018-01-13T12:28:06.084Z,88.80
2018-01-13T12:30:34.275Z,88.80
2018-01-13T12:33:02.474Z,88.60
2018-01-13T12:35:31.419Z,87.70
2018-01-13T12:37:59.590Z,87.60
2018-01-13T12:40:27.780Z,87.90
2018-01-13T12:42:55.947Z,87.90
2018-01-13T12:45:24.139Z,87.90
2018-01-13T12:47:52.302Z,88.30
2018-01-13T12:50:20.494Z,88.00
2018-01-13T12:52:48.674Z,88.30
2018-01-13T12:55:19.033Z,87.70
2018-01-13T12:57:47.235Z,87.60
2018-01-13T13:00:15.402Z,87.80
2018-01-13T13:02:43.568Z,87.90
2018-01-13T13:05:11.743Z,87.90
2018-01-13T13:07:39.921Z,87.90
2018-01-13T13:10:08.105Z,87.90
2018-01-13T13:12:36.302Z,88.10
2018-01-13T13:15:04.463Z,87.90
2018-01-13T13:17:33.424Z,88.10
2018-01-13T13:20:01.671Z,88.10
2018-01-13T13:22:30.609Z,88.10
2018-01-13T13:24:58.774Z,88.10
2018-01-13T13:27:26.982Z,88.20
2018-01-13T13:29:55.160Z,88.10
2018-01-13T13:32:23.319Z,87.60
2018-01-13T13:34:51.488Z,87.90
2018-01-13T13:37:19.657Z,88.20
2018-01-13T13:39:47.842Z,88.70
2018-01-13T13:42:16.034Z,89.20
2018-01-13T13:44:44.235Z,89.40
2018-01-13T13:47:13.185Z,90.00
2018-01-13T13:49:41.372Z,89.30
2018-01-13T13:52:09.579Z,89.60
2018-01-13T13:54:38.826Z,89.10
2018-01-13T13:57:12.516Z,89.10
2018-01-13T13:59:41.568Z,89.10
2018-01-13T14:02:09.746Z,89.00
2018-01-13T14:04:38.719Z,89.60
2018-01-13T14:07:07.214Z,89.60
2018-01-13T14:09:38.061Z,89.70
2018-01-13T14:12:07.033Z,89.70
2018-01-13T14:14:35.559Z,89.60
2018-01-13T14:17:05.916Z,90.80
2018-01-13T14:19:36.027Z,90.20
2018-01-13T14:22:04.542Z,90.20
2018-01-13T14:24:33.819Z,89.90
2018-01-13T14:27:07.184Z,89.80
2018-01-13T14:29:35.906Z,89.90
2018-01-13T14:32:04.136Z,90.00
2018-01-13T14:34:33.573Z,90.10
2018-01-13T14:37:04.885Z,90.10
2018-01-13T14:39:33.822Z,90.10
2018-01-13T14:42:02.014Z,90.10
2018-01-13T14:44:30.178Z,90.10
2018-01-13T14:46:58.385Z,90.30
2018-01-13T14:49:26.565Z,90.30
2018-01-13T14:51:54.729Z,90.30
2018-01-13T14:54:22.898Z,90.50
2018-01-13T14:56:51.088Z,90.50
2018-01-13T14:59:20.060Z,90.30
2018-01-13T15:01:48.241Z,90.30
2018-01-13T15:04:16.418Z,90.70
2018-01-13T15:06:44.637Z,90.80
2018-01-13T15:09:12.891Z,90.90
2018-01-13T15:11:41.040Z,90.80
2018-01-13T15:14:09.231Z,90.70
2018-01-13T15:16:38.178Z,90.80
2018-01-13T15:19:06.359Z,90.70
2018-01-13T15:21:34.527Z,90.70
2018-01-13T15:24:02.742Z,90.80
2018-01-13T15:26:30.927Z,90.80
2018-01-13T15:29:00.679Z,91.10
2018-01-13T15:31:28.872Z,91.10
2018-01-13T15:33:57.072Z,91.10
2018-01-13T15:36:25.263Z,91.10
2018-01-13T15:38:55.431Z,91.30
2018-01-13T15:41:23.631Z,91.30
2018-01-13T15:43:51.829Z,91.40
2018-01-13T15:46:20.010Z,91.30
2018-01-13T15:48:48.950Z,91.30
2018-01-13T15:51:17.106Z,91.20
2018-01-13T15:53:45.285Z,91.20
2018-01-13T15:56:13.459Z,91.20
2018-01-13T15:58:41.640Z,91.20
2018-01-13T16:01:09.814Z,91.10
2018-01-13T16:03:38.002Z,91.40
2018-01-13T16:06:06.185Z,91.40
2018-01-13T16:08:34.378Z,91.30
2018-01-13T16:11:02.565Z,91.30
2018-01-13T16:13:30.738Z,91.30
2018-01-13T16:15:58.918Z,91.20
2018-01-13T16:18:27.907Z,91.10
2018-01-13T16:20:56.085Z,91.10
2018-01-13T16:23:24.270Z,91.20
2018-01-13T16:25:53.232Z,91.40
2018-01-13T16:28:21.400Z,91.40
2018-01-13T16:30:49.612Z,91.30
2018-01-13T16:33:18.596Z,91.30
2018-01-13T16:35:47.643Z,91.30
2018-01-13T16:38:15.832Z,91.20
2018-01-13T16:40:44.022Z,91.10
2018-01-13T16:43:12.194Z,91.30
2018-01-13T16:45:40.391Z,91.10
2018-01-13T16:48:09.332Z,91.40
2018-01-13T16:50:37.541Z,91.30
2018-01-13T16:53:05.757Z,91.00
2018-01-13T16:55:33.970Z,90.90
2018-01-13T16:58:02.145Z,91.10
2018-01-13T17:00:30.330Z,91.10
2018-01-13T17:02:58.498Z,91.30
2018-01-13T17:05:26.688Z,91.40
2018-01-13T17:07:54.851Z,91.40
2018-01-13T17:10:23.028Z,91.40
2018-01-13T17:12:51.213Z,91.40
2018-01-13T17:15:19.395Z,91.40
2018-01-13T17:17:47.631Z,91.40
2018-01-13T17:20:15.815Z,91.40
2018-01-13T17:22:43.985Z,91.40
2018-01-13T17:25:12.156Z,91.40
2018-01-13T17:27:40.377Z,91.20
2018-01-13T17:30:08.658Z,91.20
2018-01-13T17:32:37.659Z,91.10
2018-01-13T17:35:06.635Z,91.10
2018-01-13T17:37:34.794Z,91.10
2018-01-13T17:40:03.777Z,91.10
2018-01-13T17:42:31.962Z,91.10
2018-01-13T17:45:00.134Z,91.10
2018-01-13T17:47:28.317Z,91.30
2018-01-13T17:49:56.490Z,91.40
2018-01-13T17:52:24.676Z,91.30
2018-01-13T17:54:52.850Z,91.30
2018-01-13T17:57:21.020Z,91.40
2018-01-13T17:59:49.217Z,91.10
2018-01-13T18:02:18.150Z,91.10
2018-01-13T18:04:46.328Z,91.00
2018-01-13T18:07:15.291Z,91.10
2018-01-13T18:09:43.455Z,91.00
2018-01-13T18:12:12.429Z,91.10
2018-01-13T18:14:40.622Z,91.00
2018-01-13T18:17:09.572Z,91.20
2018-01-13T18:19:37.798Z,91.20
2018-01-13T18:22:06.744Z,90.90
2018-01-13T18:24:35.037Z,90.90
2018-01-13T18:27:03.247Z,91.10
2018-01-13T18:29:31.426Z,91.00
2018-01-13T18:31:59.651Z,91.10
2018-01-13T18:34:27.862Z,91.10
2018-01-13T18:36:56.799Z,91.00
2018-01-13T18:39:24.968Z,91.00
2018-01-13T18:41:53.153Z,91.10
2018-01-13T18:44:21.342Z,91.20
2018-01-13T18:46:49.570Z,91.30
2018-01-13T18:49:17.774Z,91.20
2018-01-13T18:51:45.950Z,91.20
2018-01-13T18:54:14.123Z,91.10
2018-01-13T18:56:42.301Z,91.00
2018-01-13T18:59:10.478Z,91.20
2018-01-13T19:01:38.646Z,91.00
2018-01-13T19:04:06.825Z,91.10
2018-01-13T19:06:35.062Z,91.20
2018-01-13T19:09:03.249Z,91.10
2018-01-13T19:11:31.456Z,91.20
2018-01-13T19:13:59.666Z,91.00
2018-01-13T19:16:28.618Z,91.10
2018-01-13T19:18:56.837Z,91.10
2018-01-13T19:21:25.807Z,91.30
2018-01-13T19:23:54.011Z,91.20
2018-01-13T19:26:22.977Z,91.20
2018-01-13T19:28:51.191Z,91.10
2018-01-13T19:31:20.181Z,91.00
2018-01-13T19:33:49.127Z,90.80
2018-01-13T19:36:17.388Z,90.80
2018-01-13T19:38:45.631Z,90.90
2018-01-13T19:41:14.575Z,91.00
2018-01-13T19:43:42.785Z,91.00
2018-01-13T19:46:11.805Z,91.10
2018-01-13T19:48:39.992Z,91.10
2018-01-13T19:51:08.232Z,91.10
2018-01-13T19:53:37.194Z,90.90
2018-01-13T19:56:05.369Z,90.90
2018-01-13T19:58:33.538Z,91.10
2018-01-13T20:01:01.740Z,91.10
2018-01-13T20:03:30.725Z,91.30
2018-01-13T20:05:58.927Z,91.30
2018-01-13T20:08:27.910Z,91.20
2018-01-13T20:10:56.968Z,91.30
2018-01-13T20:13:25.174Z,91.20
2018-01-13T20:15:54.132Z,91.50
2018-01-13T20:18:22.308Z,91.50
2018-01-13T20:20:50.531Z,91.60
2018-01-13T20:23:19.529Z,91.40
2018-01-13T20:25:47.683Z,91.40
2018-01-13T20:28:16.632Z,91.60
2018-01-13T20:30:44.852Z,91.60
2018-01-13T20:33:13.866Z,91.60
2018-01-13T20:35:42.806Z,91.60
2018-01-13T20:38:10.991Z,91.50
2018-01-13T20:40:39.182Z,91.50
2018-01-13T20:43:07.367Z,91.40
2018-01-13T20:45:36.318Z,91.60
2018-01-13T20:48:04.623Z,91.60
2018-01-13T20:50:32.831Z,91.60
2018-01-13T20:53:01.108Z,91.60
2018-01-13T20:55:29.274Z,91.70
2018-01-13T20:57:58.218Z,91.70
2018-01-13T21:00:26.402Z,91.70
2018-01-13T21:02:54.612Z,91.40
2018-01-13T21:05:23.563Z,91.40
2018-01-13T21:07:51.777Z,91.40
2018-01-13T21:10:20.718Z,91.50
2018-01-13T21:12:48.901Z,91.40
2018-01-13T21:15:17.076Z,91.50
2018-01-13T21:17:45.268Z,91.40
2018-01-13T21:20:13.455Z,91.40
2018-01-13T21:22:41.693Z,91.50
2018-01-13T21:25:09.866Z,91.50
2018-01-13T21:27:38.045Z,91.30
2018-01-13T21:30:06.311Z,91.50
2018-01-13T21:32:34.514Z,91.50
2018-01-13T21:35:02.726Z,91.40
2018-01-13T21:37:31.678Z,91.50
2018-01-13T21:39:59.911Z,91.50
2018-01-13T21:42:28.094Z,91.50
2018-01-13T21:44:56.284Z,91.40
2018-01-13T21:47:24.564Z,91.40
2018-01-13T21:49:52.751Z,91.70
2018-01-13T21:52:20.943Z,91.80
2018-01-13T21:54:49.122Z,91.80
2018-01-13T21:57:17.358Z,91.60
2018-01-13T21:59:45.553Z,91.70
2018-01-13T22:02:13.753Z,91.70
2018-01-13T22:04:41.950Z,91.90
2018-01-13T22:07:11.020Z,91.90
2018-01-13T22:09:39.235Z,91.90
2018-01-13T22:12:07.419Z,91.70
2018-01-13T22:14:35.616Z,91.70
2018-01-13T22:17:03.870Z,91.80
2018-01-13T22:19:32.087Z,91.90
2018-01-13T22:22:00.277Z,91.80
2018-01-13T22:24:29.215Z,91.90
2018-01-13T22:26:57.396Z,91.90
2018-01-13T22:29:25.581Z,91.80
2018-01-13T22:31:53.758Z,91.80
2018-01-13T22:34:21.922Z,91.90
2018-01-13T22:36:50.079Z,91.90
2018-01-13T22:39:18.298Z,91.90
2018-01-13T22:41:46.467Z,91.90
2018-01-13T22:44:14.638Z,91.90
2018-01-13T22:46:42.805Z,91.80
2018-01-13T22:49:11.009Z,91.80
2018-01-13T22:51:39.177Z,91.80
2018-01-13T22:54:07.355Z,92.00
2018-01-13T22:56:35.551Z,92.10
2018-01-13T22:59:04.498Z,92.10
2018-01-13T23:01:33.470Z,92.20
2018-01-13T23:04:01.630Z,92.20
2018-01-13T23:06:29.803Z,92.10
2018-01-13T23:08:58.009Z,92.10
2018-01-13T23:11:26.167Z,91.80
2018-01-13T23:13:54.347Z,91.70
2018-01-13T23:16:22.502Z,91.50
2018-01-13T23:18:50.756Z,91.30
2018-01-13T23:21:18.915Z,91.10
2018-01-13T23:23:47.102Z,91.20
2018-01-13T23:26:16.043Z,91.20
2018-01-13T23:28:44.218Z,91.20
2018-01-13T23:31:12.380Z,91.20
2018-01-13T23:33:40.551Z,91.20
2018-01-13T23:36:08.709Z,91.20
2018-01-13T23:38:37.645Z,91.10
2018-01-13T23:41:05.814Z,91.10
2018-01-13T23:43:33.999Z,91.20
2018-01-13T23:46:02.158Z,91.20
2018-01-13T23:48:30.326Z,91.20
2018-01-13T23:50:58.506Z,91.30
2018-01-13T23:53:26.672Z,91.30
2018-01-13T23:55:55.785Z,91.40
2018-01-13T23:58:23.952Z,91.30
